createdAt,value
2023-01-08T18:20:15.419Z,8.70
2023-01-08T18:25:21.057Z,8.00
2023-01-08T18:30:26.996Z,8.00
2023-01-08T18:35:35.519Z,8.10
2023-01-08T18:40:40.664Z,8.10
2023-01-08T18:45:45.795Z,8.20
2023-01-08T18:50:53.505Z,8.40
2023-01-08T18:56:01.320Z,8.40
2023-01-08T19:01:07.296Z,8.60
2023-01-08T19:06:18.061Z,8.70
2023-01-08T19:11:23.390Z,8.80
2023-01-08T19:16:28.736Z,9.00
2023-01-08T19:21:36.663Z,9.20
2023-01-08T19:26:41.869Z,9.10
2023-01-08T19:31:47.197Z,9.10
2023-01-08T19:36:54.926Z,9.10
2023-01-08T19:42:12.772Z,9.20
2023-01-08T19:47:18.050Z,9.20
2023-01-08T19:52:25.862Z,9.20
2023-01-08T19:57:31.090Z,9.20
2023-01-08T20:02:36.324Z,9.10
2023-01-08T20:07:44.246Z,8.90
2023-01-08T20:12:49.511Z,8.90
2023-01-08T20:17:54.555Z,8.80
2023-01-08T20:23:02.362Z,8.80
2023-01-08T20:28:07.807Z,8.80
2023-01-08T20:33:14.189Z,8.80
2023-01-08T20:38:24.358Z,8.90
2023-01-08T20:43:29.663Z,8.90
2023-01-08T20:48:42.974Z,9.00
2023-01-08T20:53:54.867Z,9.00
2023-01-08T20:59:00.251Z,9.20
2023-01-08T21:04:06.639Z,9.30
2023-01-08T21:09:16.650Z,9.40
2023-01-08T21:14:21.783Z,9.50
2023-01-08T21:19:27.048Z,9.60
2023-01-08T21:24:35.232Z,9.70
2023-01-08T21:29:40.335Z,9.80
2023-01-08T21:34:45.910Z,9.80
2023-01-08T21:39:53.859Z,9.90
2023-01-08T21:45:23.483Z,10.00
